createdAt,value
2022-12-27T00:01:13.657Z,8.10
2022-12-27T00:03:42.606Z,8.20
2022-12-27T00:06:15.897Z,8.20
2022-12-27T00:08:46.309Z,8.20
2022-12-27T00:11:16.796Z,8.20
2022-12-27T00:13:46.010Z,8.20
2022-12-27T00:16:17.097Z,8.20
2022-12-27T00:18:46.106Z,8.10
2022-12-27T00:21:17.207Z,8.10
2022-12-27T00:23:49.567Z,8.10
2022-12-27T00:26:20.341Z,8.10
2022-12-27T00:28:49.465Z,8.10
2022-12-27T00:31:19.044Z,8.10
2022-12-27T00:33:49.132Z,8.10
2022-12-27T00:36:21.537Z,8.10
2022-12-27T00:38:50.623Z,8.10
2022-12-27T00:41:19.632Z,8.20
2022-12-27T00:43:54.717Z,8.20
2022-12-27T00:46:23.462Z,8.30
2022-12-27T00:48:52.431Z,8.30
2022-12-27T00:51:24.185Z,8.30
2022-12-27T00:53:54.304Z,8.30
2022-12-27T00:56:24.698Z,8.40
2022-12-27T00:58:55.646Z,8.40
2022-12-27T01:01:25.908Z,8.40
2022-12-27T01:03:55.100Z,8.50
2022-12-27T01:06:29.175Z,8.60
2022-12-27T01:08:58.279Z,8.60
2022-12-27T01:11:28.898Z,8.60
2022-12-27T01:13:58.211Z,8.60
2022-12-27T01:16:27.985Z,8.60
2022-12-27T01:18:57.224Z,8.60
2022-12-27T01:21:28.068Z,8.60
2022-12-27T01:23:56.623Z,8.70
2022-12-27T01:26:25.565Z,8.60
2022-12-27T01:28:54.902Z,8.60
2022-12-27T01:31:26.016Z,8.60
2022-12-27T01:33:57.145Z,8.60
2022-12-27T01:36:28.652Z,8.60
2022-12-27T01:38:57.244Z,8.60
2022-12-27T01:41:45.024Z,8.60
2022-12-27T01:44:53.494Z,8.60
2022-12-27T01:47:35.041Z,8.50
2022-12-27T01:50:10.813Z,8.50
2022-12-27T01:52:44.539Z,8.50
2022-12-27T01:55:26.615Z,8.60
2022-12-27T01:58:00.108Z,8.50
2022-12-27T02:00:28.862Z,8.60
2022-12-27T02:02:57.987Z,8.60
2022-12-27T02:05:27.749Z,8.60
2022-12-27T02:08:10.079Z,8.60
2022-12-27T02:10:38.973Z,8.60
2022-12-27T02:13:08.044Z,8.50
2022-12-27T02:15:36.581Z,8.50
2022-12-27T02:18:05.640Z,8.50
2022-12-27T02:21:01.964Z,8.40
2022-12-27T02:24:09.696Z,8.40
2022-12-27T02:26:50.526Z,8.40
2022-12-27T02:30:02.211Z,8.40
2022-12-27T02:32:38.094Z,8.40
2022-12-27T02:35:15.623Z,8.50
2022-12-27T02:37:48.607Z,8.40
2022-12-27T02:40:40.002Z,8.40
2022-12-27T02:43:26.977Z,8.50
2022-12-27T02:46:21.842Z,8.50
2022-12-27T02:49:14.630Z,8.50
2022-12-27T02:52:17.939Z,8.40
2022-12-27T02:55:12.613Z,8.40
2022-12-27T02:57:48.813Z,8.40
2022-12-27T03:00:37.459Z,8.40
2022-12-27T03:03:32.467Z,8.40
2022-12-27T03:06:42.898Z,8.30
2022-12-27T03:09:50.506Z,8.30
2022-12-27T03:12:46.205Z,8.30
2022-12-27T03:15:49.275Z,8.20
2022-12-27T03:18:24.368Z,8.30
2022-12-27T03:21:11.325Z,8.30
2022-12-27T03:24:01.866Z,8.30
2022-12-27T03:26:33.980Z,8.20
2022-12-27T03:29:21.367Z,7.60
2022-12-27T03:32:11.737Z,6.90
2022-12-27T03:34:44.351Z,6.30
2022-12-27T03:37:33.232Z,5.90
2022-12-27T03:40:08.611Z,5.60
2022-12-27T03:42:58.749Z,5.40
2022-12-27T03:45:45.562Z,5.20
2022-12-27T03:48:17.465Z,5.00
2022-12-27T03:50:51.418Z,4.90
2022-12-27T03:53:25.868Z,4.80
2022-12-27T03:55:56.141Z,4.70
2022-12-27T03:58:24.676Z,4.60
2022-12-27T04:00:53.275Z,4.60
2022-12-27T04:03:21.881Z,4.50
2022-12-27T04:05:50.556Z,4.50
2022-12-27T04:08:36.690Z,4.40
2022-12-27T04:11:24.183Z,4.40
2022-12-27T04:14:09.988Z,4.50
2022-12-27T04:16:56.250Z,4.50
2022-12-27T04:19:42.295Z,4.50
2022-12-27T04:22:28.196Z,4.40
2022-12-27T04:25:14.367Z,4.40
2022-12-27T04:28:02.122Z,4.30
2022-12-27T04:30:48.221Z,4.30
2022-12-27T04:33:34.572Z,4.30
2022-12-27T04:36:06.365Z,4.30
2022-12-27T04:38:35.300Z,4.40
2022-12-27T04:41:21.540Z,4.30
2022-12-27T04:44:09.126Z,4.30
2022-12-27T04:46:55.497Z,4.20
2022-12-27T04:49:43.093Z,4.30
2022-12-27T04:52:33.107Z,4.30
2022-12-27T04:55:07.022Z,4.30
2022-12-27T04:57:35.679Z,4.30
2022-12-27T05:00:25.847Z,4.30
2022-12-27T05:02:55.169Z,4.30
2022-12-27T05:05:24.595Z,4.30
2022-12-27T05:08:12.705Z,4.30
2022-12-27T05:10:58.836Z,4.30
2022-12-27T05:13:44.953Z,4.30
2022-12-27T05:16:15.729Z,4.30
2022-12-27T05:18:44.490Z,4.30
2022-12-27T05:21:13.104Z,4.20
2022-12-27T05:24:05.140Z,4.20
2022-12-27T05:26:34.340Z,4.00
2022-12-27T05:29:03.463Z,3.90
2022-12-27T05:31:36.512Z,3.80
2022-12-27T05:34:16.984Z,3.80
2022-12-27T05:36:45.924Z,3.80
2022-12-27T05:39:15.018Z,3.70
2022-12-27T05:42:04.895Z,3.60
2022-12-27T05:44:34.363Z,3.60
2022-12-27T05:49:48.301Z,3.40
2022-12-27T05:52:40.926Z,3.30
2022-12-27T05:55:18.249Z,3.20
2022-12-27T05:57:47.201Z,3.30
2022-12-27T06:00:17.086Z,3.20
2022-12-27T06:02:47.366Z,3.10
2022-12-27T06:05:16.632Z,3.00
2022-12-27T06:07:45.380Z,3.00
2022-12-27T06:10:14.160Z,3.10
2022-12-27T06:12:42.766Z,3.10
2022-12-27T06:15:12.436Z,3.10
2022-12-27T06:17:41.227Z,3.20
2022-12-27T06:20:12.041Z,3.10
2022-12-27T06:22:41.174Z,3.10
2022-12-27T06:25:14.133Z,3.10
2022-12-27T06:27:43.624Z,3.10
2022-12-27T06:30:16.009Z,3.10
2022-12-27T06:32:44.732Z,3.00
2022-12-27T06:35:14.796Z,2.90
2022-12-27T06:37:43.658Z,2.80
2022-12-27T06:40:13.293Z,2.70
2022-12-27T06:42:45.824Z,2.70
2022-12-27T06:45:14.449Z,2.60
2022-12-27T06:47:43.102Z,2.50
2022-12-27T06:50:14.073Z,2.60
2022-12-27T06:52:42.820Z,2.70
2022-12-27T06:55:11.756Z,2.70
2022-12-27T06:57:40.461Z,2.80
2022-12-27T07:00:10.506Z,2.70
2022-12-27T07:02:40.216Z,2.70
2022-12-27T07:05:09.600Z,2.80
2022-12-27T07:07:39.701Z,2.80
2022-12-27T07:10:09.506Z,2.70
2022-12-27T07:12:38.663Z,2.80
2022-12-27T07:15:08.696Z,2.70
2022-12-27T07:17:38.657Z,2.70
2022-12-27T07:20:08.707Z,2.80
2022-12-27T07:22:38.879Z,2.70
2022-12-27T07:25:08.509Z,2.70
2022-12-27T07:27:37.470Z,2.80
2022-12-27T07:30:07.549Z,2.80
2022-12-27T07:32:36.167Z,2.70
2022-12-27T07:35:05.381Z,2.80
2022-12-27T07:37:34.471Z,2.80
2022-12-27T07:40:06.488Z,2.80
2022-12-27T07:42:35.133Z,2.80
2022-12-27T07:45:04.382Z,2.70
2022-12-27T07:47:32.986Z,2.80
2022-12-27T07:50:01.972Z,2.90
2022-12-27T07:52:31.548Z,3.00
2022-12-27T07:55:00.138Z,3.00
2022-12-27T07:57:31.315Z,3.00
2022-12-27T08:00:00.175Z,3.00
2022-12-27T08:02:29.352Z,3.00
2022-12-27T08:05:01.945Z,3.00
2022-12-27T08:07:30.893Z,3.00
2022-12-27T08:09:59.722Z,3.00
2022-12-27T08:12:28.346Z,3.20
2022-12-27T08:14:58.265Z,3.40
2022-12-27T08:17:28.491Z,3.70
2022-12-27T08:19:57.516Z,3.90
2022-12-27T08:22:26.145Z,4.10
2022-12-27T08:24:56.122Z,4.20
2022-12-27T08:27:25.964Z,4.30
2022-12-27T08:29:54.568Z,4.50
2022-12-27T08:32:25.067Z,4.60
2022-12-27T08:34:54.019Z,4.60
2022-12-27T08:37:24.173Z,4.60
2022-12-27T08:39:55.437Z,4.70
2022-12-27T08:42:27.879Z,4.70
2022-12-27T08:44:56.467Z,4.70
2022-12-27T08:47:26.503Z,4.80
2022-12-27T08:49:55.161Z,4.70
2022-12-27T08:52:24.063Z,4.80
2022-12-27T08:54:52.635Z,4.80
2022-12-27T08:57:21.320Z,4.80
2022-12-27T08:59:49.856Z,4.80
2022-12-27T09:02:20.610Z,4.90
2022-12-27T09:04:50.637Z,4.90
2022-12-27T09:07:19.218Z,5.00
2022-12-27T09:09:47.853Z,5.10
2022-12-27T09:12:16.681Z,5.10
2022-12-27T09:14:45.688Z,5.20
2022-12-27T09:17:14.239Z,5.20
2022-12-27T09:19:42.870Z,5.30
2022-12-27T09:22:12.890Z,5.40
2022-12-27T09:24:42.004Z,5.50
2022-12-27T09:27:10.871Z,5.50
2022-12-27T09:29:48.088Z,5.50
2022-12-27T09:32:17.167Z,5.60
2022-12-27T09:34:45.789Z,5.60
2022-12-27T09:37:15.876Z,5.60
2022-12-27T09:39:44.402Z,5.50
2022-12-27T09:45:22.179Z,5.60
2022-12-27T09:47:57.276Z,5.50
2022-12-27T09:50:30.172Z,5.50
2022-12-27T09:53:06.667Z,5.60
2022-12-27T09:55:46.870Z,5.70
2022-12-27T09:58:30.411Z,5.80
2022-12-27T10:00:59.604Z,5.70
2022-12-27T10:03:31.269Z,5.70
2022-12-27T10:06:19.171Z,5.70
2022-12-27T10:08:57.941Z,5.70
2022-12-27T10:11:40.208Z,5.70
2022-12-27T10:14:23.367Z,5.70
2022-12-27T10:16:59.632Z,5.70
2022-12-27T10:19:37.216Z,5.80
2022-12-27T10:22:17.624Z,5.90
2022-12-27T10:24:51.607Z,5.90
2022-12-27T10:27:25.236Z,6.00
2022-12-27T10:29:58.957Z,6.00
2022-12-27T10:32:28.164Z,6.00
2022-12-27T10:35:00.185Z,5.90
2022-12-27T10:37:36.929Z,5.80
2022-12-27T10:40:14.447Z,5.70
2022-12-27T10:42:50.154Z,5.80
2022-12-27T10:45:33.801Z,5.90
2022-12-27T10:48:19.473Z,6.10
2022-12-27T10:50:59.811Z,6.30
2022-12-27T10:53:40.504Z,6.40
2022-12-27T10:56:26.232Z,6.30
2022-12-27T10:58:58.981Z,6.30
2022-12-27T11:01:29.522Z,6.20
2022-12-27T11:04:19.432Z,6.10
2022-12-27T11:06:50.002Z,6.00
2022-12-27T11:09:28.095Z,5.80
2022-12-27T11:12:18.787Z,5.90
2022-12-27T11:15:01.605Z,5.90
2022-12-27T11:17:37.979Z,6.00
2022-12-27T11:20:20.736Z,6.00
2022-12-27T11:22:53.064Z,6.20
2022-12-27T11:25:22.247Z,6.20
2022-12-27T11:27:54.820Z,6.20
2022-12-27T11:30:25.733Z,6.20
2022-12-27T11:32:55.028Z,6.10
2022-12-27T11:35:25.122Z,6.00
2022-12-27T11:37:53.888Z,5.90
2022-12-27T11:40:25.805Z,5.80
2022-12-27T11:43:08.251Z,5.80
2022-12-27T11:45:42.696Z,5.80
2022-12-27T11:48:22.369Z,5.90
2022-12-27T11:51:26.369Z,5.90
2022-12-27T11:54:15.150Z,5.90
2022-12-27T11:56:49.580Z,5.90
2022-12-27T11:59:45.658Z,5.90
2022-12-27T12:02:32.387Z,6.00
2022-12-27T12:05:32.550Z,6.10
2022-12-27T12:08:22.520Z,6.10
2022-12-27T12:10:56.891Z,6.20
2022-12-27T12:14:00.175Z,6.10
2022-12-27T12:16:46.601Z,6.10
2022-12-27T12:19:30.042Z,6.00
2022-12-27T12:22:11.639Z,5.90
2022-12-27T12:25:01.422Z,5.80
2022-12-27T12:27:44.162Z,5.70
2022-12-27T12:30:29.794Z,5.70
2022-12-27T12:33:10.971Z,5.70
2022-12-27T12:35:56.687Z,5.70
2022-12-27T12:38:33.937Z,5.70
2022-12-27T12:41:32.925Z,5.70
2022-12-27T12:44:41.044Z,5.60
2022-12-27T12:47:25.868Z,5.60
2022-12-27T12:50:19.883Z,5.60
2022-12-27T12:53:10.956Z,5.40
2022-12-27T12:55:56.007Z,5.50
2022-12-27T12:58:50.267Z,5.50
2022-12-27T13:01:36.613Z,5.40
2022-12-27T13:04:24.919Z,5.40
2022-12-27T13:07:23.735Z,5.30
2022-12-27T13:10:16.381Z,5.30
2022-12-27T13:12:55.631Z,5.20
2022-12-27T13:15:37.715Z,5.20
2022-12-27T13:18:21.782Z,5.20
2022-12-27T13:21:13.978Z,5.10
2022-12-27T13:24:04.247Z,5.10
2022-12-27T13:26:42.435Z,5.10
2022-12-27T13:29:37.480Z,5.00
2022-12-27T13:32:16.642Z,5.00
2022-12-27T13:34:55.725Z,5.00
2022-12-27T13:37:37.313Z,5.00
2022-12-27T13:40:32.363Z,5.00
2022-12-27T13:43:39.430Z,4.90
2022-12-27T13:46:42.406Z,5.00
2022-12-27T13:49:43.321Z,4.90
2022-12-27T13:52:35.616Z,4.90
2022-12-27T13:55:37.926Z,4.90
2022-12-27T13:58:36.058Z,4.90
2022-12-27T14:01:31.098Z,4.80
2022-12-27T14:04:14.842Z,4.80
2022-12-27T14:07:09.585Z,4.80
2022-12-27T14:09:59.392Z,4.80
2022-12-27T14:12:52.882Z,4.70
2022-12-27T14:15:25.459Z,4.80
2022-12-27T14:18:09.523Z,4.80
2022-12-27T14:20:57.025Z,4.70
2022-12-27T14:23:56.363Z,4.80
2022-12-27T14:26:54.563Z,4.70
2022-12-27T14:29:56.744Z,4.70
2022-12-27T14:33:03.904Z,4.70
2022-12-27T14:35:57.882Z,4.70
2022-12-27T14:39:02.071Z,4.60
2022-12-27T14:42:06.083Z,4.70
2022-12-27T14:45:22.000Z,4.70
2022-12-27T14:48:40.258Z,4.70
2022-12-27T14:51:59.812Z,4.70
2022-12-27T14:55:30.548Z,4.60
2022-12-27T14:58:49.448Z,4.50
2022-12-27T15:02:30.377Z,4.60
2022-12-27T15:05:13.627Z,4.50
2022-12-27T15:08:21.180Z,4.50
2022-12-27T15:11:03.751Z,4.50
2022-12-27T15:14:02.891Z,4.50
2022-12-27T15:17:06.758Z,4.40
2022-12-27T15:19:48.508Z,4.50
2022-12-27T15:22:31.178Z,4.50
2022-12-27T15:25:08.575Z,4.50
2022-12-27T15:27:51.617Z,4.50
2022-12-27T15:30:24.592Z,4.50
2022-12-27T15:33:04.736Z,4.50
2022-12-27T15:36:04.430Z,4.40
2022-12-27T15:38:53.032Z,4.50
2022-12-27T15:41:38.606Z,4.40
2022-12-27T15:44:45.249Z,4.50
2022-12-27T15:47:48.734Z,4.50
2022-12-27T15:50:37.066Z,4.50
2022-12-27T15:53:33.550Z,4.50
2022-12-27T15:56:35.071Z,4.40
2022-12-27T15:59:39.180Z,4.50
2022-12-27T16:02:31.028Z,4.50
2022-12-27T16:05:06.641Z,4.50
2022-12-27T16:07:48.792Z,4.50
2022-12-27T16:10:50.174Z,4.50
2022-12-27T16:13:37.668Z,4.40
2022-12-27T16:16:33.931Z,4.60
2022-12-27T16:19:20.410Z,4.60
2022-12-27T16:21:49.683Z,4.50
2022-12-27T16:24:22.025Z,4.50
2022-12-27T16:26:56.255Z,4.50
2022-12-27T16:29:30.126Z,4.50
2022-12-27T16:32:16.630Z,4.50
2022-12-27T16:34:48.802Z,4.50
2022-12-27T16:37:26.167Z,4.50
2022-12-27T16:40:15.057Z,4.40
2022-12-27T16:43:28.759Z,4.40
2022-12-27T16:46:10.218Z,4.40
2022-12-27T16:48:56.004Z,4.40
2022-12-27T16:51:34.703Z,4.40
2022-12-27T16:54:16.830Z,4.40
2022-12-27T16:56:48.441Z,4.50
2022-12-27T16:59:54.181Z,4.50
2022-12-27T17:02:34.749Z,4.50
2022-12-27T17:05:03.569Z,4.50
2022-12-27T17:07:51.740Z,4.50
2022-12-27T17:10:46.178Z,4.50
2022-12-27T17:13:19.503Z,4.50
2022-12-27T17:15:54.627Z,4.50
2022-12-27T17:18:33.253Z,4.50
2022-12-27T17:21:05.934Z,4.50
2022-12-27T17:23:41.405Z,4.50
2022-12-27T17:26:40.395Z,4.50
2022-12-27T17:29:29.543Z,4.50
2022-12-27T17:32:05.526Z,4.60
2022-12-27T17:34:47.334Z,4.50
2022-12-27T17:37:22.393Z,4.60
2022-12-27T17:40:04.643Z,4.60
2022-12-27T17:42:56.774Z,4.50
2022-12-27T17:45:35.657Z,4.60
2022-12-27T17:48:25.166Z,4.60
2022-12-27T17:50:59.285Z,4.60
2022-12-27T17:53:45.237Z,4.60
2022-12-27T17:56:35.074Z,4.50
2022-12-27T17:59:12.956Z,4.50
2022-12-27T18:01:47.643Z,4.50
2022-12-27T18:04:24.580Z,4.50
2022-12-27T18:07:00.224Z,4.50
2022-12-27T18:09:39.883Z,4.50
2022-12-27T18:12:15.996Z,4.50
2022-12-27T18:14:45.864Z,4.50
2022-12-27T18:17:29.059Z,4.50
2022-12-27T18:19:58.575Z,4.50
2022-12-27T18:22:28.851Z,4.50
2022-12-27T18:24:57.404Z,4.40
2022-12-27T18:27:27.027Z,4.50
2022-12-27T18:29:55.637Z,4.50
2022-12-27T18:32:26.313Z,4.60
2022-12-27T18:34:58.577Z,4.60
2022-12-27T18:37:29.764Z,4.50
2022-12-27T18:40:01.634Z,4.50
2022-12-27T18:42:34.499Z,4.50
2022-12-27T18:45:05.956Z,4.50
2022-12-27T18:47:39.664Z,4.40
2022-12-27T18:50:18.931Z,4.40
2022-12-27T18:52:54.755Z,4.40
2022-12-27T18:55:27.812Z,4.50
2022-12-27T18:58:05.792Z,4.40
2022-12-27T19:00:47.585Z,4.40
2022-12-27T19:03:18.097Z,4.40
2022-12-27T19:06:01.636Z,4.40
2022-12-27T19:08:36.423Z,4.40
2022-12-27T19:11:06.203Z,4.40
2022-12-27T19:13:44.052Z,4.50
2022-12-27T19:16:24.482Z,4.50
2022-12-27T19:18:55.992Z,4.50
2022-12-27T19:21:32.316Z,4.40
2022-12-27T19:24:21.627Z,4.40
2022-12-27T19:26:50.762Z,4.40
2022-12-27T19:29:21.789Z,4.40
2022-12-27T19:31:56.726Z,4.40
2022-12-27T19:34:28.417Z,4.40
2022-12-27T19:36:57.746Z,4.40
2022-12-27T19:39:30.755Z,4.40
2022-12-27T19:42:02.505Z,4.50
2022-12-27T19:44:31.527Z,4.50
2022-12-27T19:47:00.128Z,4.50
2022-12-27T19:49:42.714Z,4.50
2022-12-27T19:52:16.635Z,4.50
2022-12-27T19:54:46.877Z,4.50
2022-12-27T19:57:15.727Z,4.50
2022-12-27T19:59:44.400Z,4.50
2022-12-27T20:02:13.237Z,4.50
2022-12-27T20:04:42.138Z,4.50
2022-12-27T20:07:19.677Z,4.50
2022-12-27T20:09:49.753Z,4.50
2022-12-27T20:12:18.476Z,4.50
2022-12-27T20:14:47.670Z,4.50
2022-12-27T20:17:16.664Z,4.60
2022-12-27T20:19:45.340Z,4.50
2022-12-27T20:22:13.970Z,4.50
2022-12-27T20:24:42.709Z,4.50
2022-12-27T20:27:13.002Z,4.50
2022-12-27T20:29:41.528Z,4.40
2022-12-27T20:32:10.130Z,4.40
2022-12-27T20:34:38.800Z,4.40
2022-12-27T20:37:07.655Z,4.40
2022-12-27T20:39:36.220Z,4.40
2022-12-27T20:42:04.910Z,4.40
2022-12-27T20:44:36.023Z,4.40
2022-12-27T20:47:04.601Z,4.30
2022-12-27T20:49:33.317Z,4.40
2022-12-27T20:52:03.321Z,4.40
2022-12-27T20:54:32.179Z,4.40
2022-12-27T20:57:03.290Z,4.30
2022-12-27T20:59:31.946Z,4.30
2022-12-27T21:02:02.091Z,4.40
2022-12-27T21:04:30.900Z,4.40
2022-12-27T21:06:59.664Z,4.40
2022-12-27T21:09:28.515Z,4.40
2022-12-27T21:11:58.883Z,4.40
2022-12-27T21:14:28.176Z,4.40
2022-12-27T21:16:57.377Z,4.40
2022-12-27T21:19:27.587Z,4.40
2022-12-27T21:21:56.211Z,4.40
2022-12-27T21:24:24.968Z,4.40
2022-12-27T21:26:56.605Z,4.30
2022-12-27T21:29:25.418Z,4.40
2022-12-27T21:31:54.121Z,4.40
2022-12-27T21:34:22.833Z,4.40
2022-12-27T21:36:53.723Z,4.30
2022-12-27T21:39:22.494Z,4.30
2022-12-27T21:41:51.332Z,4.40
2022-12-27T21:44:21.361Z,4.30
2022-12-27T21:46:49.902Z,4.30
2022-12-27T21:49:18.662Z,4.30
2022-12-27T21:51:47.410Z,4.20
2022-12-27T21:54:17.433Z,4.20
2022-12-27T21:56:46.065Z,4.20
2022-12-27T21:59:14.806Z,4.20
2022-12-27T22:01:50.328Z,4.20
2022-12-27T22:04:20.003Z,4.20
2022-12-27T22:06:48.865Z,4.20
2022-12-27T22:09:19.906Z,4.20
2022-12-27T22:11:50.109Z,4.20
2022-12-27T22:14:23.463Z,4.20
2022-12-27T22:16:54.202Z,4.30
2022-12-27T22:19:23.009Z,4.20
2022-12-27T22:21:51.765Z,4.20
2022-12-27T22:24:21.821Z,4.20
2022-12-27T22:26:50.875Z,4.20
2022-12-27T22:29:19.653Z,4.20
2022-12-27T22:31:52.834Z,4.20
2022-12-27T22:34:21.474Z,4.20
2022-12-27T22:36:53.052Z,4.20
2022-12-27T22:39:23.079Z,4.20
2022-12-27T22:41:51.695Z,4.20
2022-12-27T22:44:20.380Z,3.90
2022-12-27T22:49:41.750Z,4.20
2022-12-27T22:52:10.391Z,4.20
2022-12-27T22:55:05.880Z,4.20
2022-12-27T22:57:29.298Z,4.20
2022-12-27T22:59:58.056Z,4.20
2022-12-27T23:02:26.763Z,4.10
2022-12-27T23:04:55.337Z,4.10
2022-12-27T23:08:05.782Z,4.10
2022-12-27T23:10:14.071Z,4.10
2022-12-27T23:12:42.729Z,4.10
2022-12-27T23:15:12.453Z,4.10
2022-12-27T23:17:41.018Z,4.10
2022-12-27T23:20:11.199Z,4.10
2022-12-27T23:22:39.962Z,4.10
2022-12-27T23:25:09.172Z,4.10
2022-12-27T23:27:39.460Z,4.10
2022-12-27T23:30:09.537Z,4.20
2022-12-27T23:32:38.349Z,4.20
2022-12-27T23:35:07.687Z,4.20
2022-12-27T23:37:36.346Z,4.20
2022-12-27T23:40:05.295Z,4.20
2022-12-27T23:42:33.907Z,4.20
2022-12-27T23:45:04.041Z,4.20
2022-12-27T23:47:32.638Z,4.20
2022-12-27T23:50:01.274Z,4.30
2022-12-27T23:52:30.021Z,4.20
2022-12-27T23:54:59.035Z,4.20
2022-12-27T23:57:27.745Z,4.20
2022-12-27T23:59:56.598Z,4.20
